Nearby METAR Reports

 

KSJC - San Jose, California, USA
Distance from station: NE 9mi, 14km
Updated: Thu, 21-Mar-2019 7:53pm EDT
Few Clouds
Few Clouds
 Wind from NNW
Wind: NNW 17 mph , 28 km/h
Temperature: 61°F , 16°C
Dew Point: 45°F , 7°C
Humidity: 55%
Barometer: 30.10 inHg , 1019.3 hPa
Clouds: Few Clouds
Visibility: 10 miles , 16 km
Cloud details: Few Clouds 3600 ft
Few Clouds 5000 ft
2019/03/21 23:53 KSJC 212353Z 34015KT 10SM FEW036 FEW050 16/07 A3010 RMK AO2 SLP193 TCU DSNT E T01610072 10172 20133 55000
KNUQ - Moffett Nas/Mtn, California, USA
Distance from station: N 9mi, 14km
Updated: Thu, 21-Mar-2019 7:56pm EDT
Partly cloudy
Partly cloudy
 Wind from N
Wind: N 16 mph , 26 km/h
Temperature: 61°F , 16°C
Dew Point: 46°F , 8°C
Humidity: 59%
Barometer: 30.11 inHg , 1019.6 hPa
Clouds: Partly cloudy
Visibility: 10 miles , 16 km
Cloud details: Partly cloudy 5000 ft
2019/03/21 23:56 KNUQ 212356Z 36014KT 10SM SCT050 16/08 A3011 RMK AO2 SLP198 T01610078 10167 20139 55001
 
KPAO - Palo Alto, California, USA
Distance from station: NNW 14mi, 23km
Updated: Thu, 21-Mar-2019 7:47pm EDT
Few Clouds
Few Clouds
 Wind from NW
Wind: NW 13 mph , 20 km/h
Temperature: 63°F , 17°C
Dew Point: 43°F , 6°C
Humidity: 49%
Barometer: 30.11 inHg , 1019.6 hPa
Clouds: Few Clouds
Visibility: 10 miles , 16 km
Cloud details: Few Clouds 3000 ft
2019/03/21 23:47 KPAO 212347Z 32011KT 10SM FEW030 17/06 A3011
KRHV - San Jose/Reid, California, USA
Distance from station: ENE 12mi, 19km
Updated: Thu, 21-Mar-2019 7:52pm EDT
Partly cloudy
Partly cloudy
 Wind from WNW
Wind: WNW 14 mph , 22 km/h
Temperature: 63°F , 17°C
Dew Point: 45°F , 7°C
Humidity: 52%
Barometer: 30.08 inHg , 1018.6 hPa
Clouds: Partly cloudy
Visibility: 10 miles , 16 km
Cloud details: Partly cloudy 3500 ft
2019/03/21 23:52 KRHV 212352Z 30012KT 10SM SCT035 17/07 A3008
 
KOAK - Oakland, California, USA
Distance from station: NNW 31mi, 50km
Updated: Thu, 21-Mar-2019 7:53pm EDT
Partly cloudy
Partly cloudy
 Wind from W
Wind: W 16 mph , 26 km/h
Temperature: 61°F , 16°C
Dew Point: 45°F , 7°C
Humidity: 55%
Barometer: 30.12 inHg , 1020 hPa
Clouds: Partly cloudy
Visibility: 10 miles , 16 km
Cloud details: Few Clouds 1600 ft
Few Clouds 3000 ft
Partly cloudy 5500 ft
Partly cloudy 20000 ft
2019/03/21 23:53 KOAK 212353Z 26014KT 10SM FEW016 FEW030 SCT055 SCT200 16/07 A3012 RMK AO2 SLP200 T01610072 10167 20133 53001
KSQL - San Carlos Airpo, California, USA
Distance from station: NW 21mi, 34km
Updated: Thu, 21-Mar-2019 6:47pm EDT
NOT Current
Partly cloudy
Partly cloudy
 Wind from WSW
Wind: WSW 13 mph , 20 km/h, Gust: 17 mph , 28 km/h
Temperature: 61°F , 16°C
Dew Point: 41°F , 5°C
Humidity: 48%
Barometer: 30.11 inHg , 1019.6 hPa
Clouds: Partly cloudy
Visibility: 10 miles , 16 km
Cloud details: Partly cloudy 4100 ft
Partly cloudy 4700 ft
2019/03/21 22:47 KSQL 212247Z 24011G15KT 10SM SCT041 SCT047 16/05 A3011
 
KSFO - San Francisco, California, USA
Distance from station: NW 30mi, 49km
Updated: Thu, 21-Mar-2019 7:56pm EDT
Partly cloudy
Partly cloudy
 Wind from W
Wind: W 20 mph , 31 km/h
Temperature: 59°F , 15°C
Dew Point: 45°F , 7°C
Humidity: 59%
Barometer: 30.12 inHg , 1020 hPa
Clouds: Partly cloudy
Visibility: 10 miles , 16 km
Cloud details: Partly cloudy 3000 ft
2019/03/21 23:56 KSFO 212356Z 26017KT 10SM SCT030 15/07 A3012 RMK AO2 SLP198 T01500067 10161 20128 53002
KE16 - San Martin, California, USA
Distance from station: ESE 27mi, 43km
Updated: Wed, 20-Mar-2019 8:15pm EDT
NOT Current
Clear
Clear
 Wind from SSW
Wind: SSW 14 mph , 22 km/h
Temperature: 59°F , 15°C
Dew Point: 41°F , 5°C
Humidity: 51%
Barometer: 30.04 inHg , 1017.3 hPa
Clouds: Clear
Visibility: 10 miles , 16 km
2019/03/21 00:15 KE16 210015Z AUTO 21012KT 10SM CLR 15/05 A3004 RMK AO2
 
KWVI - Watsonville, California, USA
Distance from station: SSE 27mi, 44km
Updated: Thu, 21-Mar-2019 7:53pm EDT
Partly cloudy
Partly cloudy
 Wind from W
Wind: W 10 mph , 17 km/h, Gust: 20 mph , 31 km/h
Temperature: 57°F , 14°C
Dew Point: 48°F , 9°C
Humidity: 72%
Barometer: 30.12 inHg , 1020 hPa
Clouds: Partly cloudy
Visibility: 10 miles , 16 km
Cloud details: Partly cloudy 6500 ft
2019/03/21 23:53 KWVI 212353Z AUTO 26009G17KT 10SM SCT065 14/09 A3012 RMK AO2 SLP199 T01440094 10161 20133 53003
KHAF - Half Moon Bay, California, USA
Distance from station: WNW 31mi, 50km
Updated: Thu, 21-Mar-2019 8:00pm EDT
Haze, Clear
Haze, Clear
 Wind from NW
Wind: NW 12 mph , 19 km/h
Temperature: 55°F , 13°C
Dew Point: 48°F , 9°C
Humidity: 77%
Barometer: 30.15 inHg , 1021 hPa
Summary: Haze
Clouds: Clear
Visibility: 6 miles , 10 km
2019/03/22 00:00 KHAF 220000Z AUTO 31010KT 6SM HZ CLR 13/09 A3015 RMK AO2
 
KHWD - Hayward, California, USA
Distance from station: N 28mi, 44km
Updated: Thu, 21-Mar-2019 7:54pm EDT
Few Clouds
Few Clouds
 Wind from WNW
Wind: WNW 13 mph , 20 km/h
Temperature: 66°F , 19°C
Dew Point: 45°F , 7°C
Humidity: 46%
Barometer: 30.12 inHg , 1020 hPa
Clouds: Few Clouds
Visibility: 10 miles , 16 km
Cloud details: Few Clouds 3000 ft
2019/03/21 23:54 KHWD 212354Z 30011KT 10SM FEW030 19/07 A3012 RMK AO2 SLP209 T01890072 10194 20156 53003
KLVK - Livermore, California, USA
Distance from station: NNE 31mi, 51km
Updated: Thu, 21-Mar-2019 7:53pm EDT
Clear
Clear
 Wind from W
Wind: W 16 mph , 26 km/h
Temperature: 61°F , 16°C
Dew Point: 41°F , 5°C
Humidity: 48%
Barometer: 30.09 inHg , 1019 hPa
Clouds: Clear
Visibility: 10 miles , 16 km
2019/03/21 23:53 KLVK 212353Z 27014KT 10SM CLR 16/05 A3009 RMK AO2 SLP188 T01610050 10172 20117 55001